Dirección General De Aeronáutica Civil

Dirección Meteorológica de Chile - Servicios Climáticos

Informe General de Control de Calidad de la Estación

Listado de niveles de control de calidad para algunos parámetros
Estación Molina Lontue (350080)
Fecha de Revisión de los datos :

Elementos

Registros Niveles de Control Total
Nivel 0 Nivel 1 Nivel 2 Nivel 3 Errores Porcentaje
01 Temperatura del Aire Seco 122.617 0 . 64 0.05 % 0 . 0 . 64 0.05 %
02 Temperatura de Rocío 122.640 0 . 0 . 0 . 0 . 0 0.00 %
03 Humedad Relativa del Aire 122.645 0 . 0 . 0 . 0 . 0 0.00 %
04 Temperatura Máxima PM 1.223 0 . 0 . 0 . 0 . 0 0.00 %
05 Temperatura Mínima AM 1.208 0 . 0 . 0 . 0 . 0 0.00 %
06 Agua Caida, Acumulada 6 Horas 21.647 0 . 0 . 0 . 0 . 0 0.00 %
07 Presión Atm. a Nivel de Estación (QFE) 122.199 0 . 0 . 0 . 0 . 0 0.00 %
08 Presión Atm. a Nivel Medio del Mar (QFF) 28.978 0 . 0 . 0 . 0 . 0 0.00 %
09 Presión Atm. Estándar OACI (QNH) 28.978 0 . 0 . 0 . 0 . 0 0.00 %

Totales

572.135 . 0.0000 % . 0.0112 % . 0.0000 % . 0.0000 % 64 0.0112 %

Detalle de Errores Encontrados

Nivel Fecha del Dato Descripción Información Error Fecha Ingreso
1 2017-05-25 19:00:00 Ts debe ser mayor o igual a Td Ts=0.0 - Td=10.3 2023-11-18 20:14:00
1 2017-05-25 20:00:00 Ts debe ser mayor o igual a Td Ts=0.0 - Td=9.7 2023-11-18 20:14:00
1 2019-10-01 12:00:00 Ts debe ser mayor o igual a Td Ts=2.1 - Td=3.0 2023-11-08 09:24:00
1 2019-10-01 13:00:00 Ts debe ser mayor o igual a Td Ts=6.4 - Td=6.6 2023-11-08 09:24:00
1 2019-10-02 11:00:00 Ts debe ser mayor o igual a Td Ts=-0.7 - Td=-0.4 2023-11-08 09:24:00
1 2019-10-02 14:00:00 Ts debe ser mayor o igual a Td Ts=7.3 - Td=8.1 2023-11-08 09:24:00
1 2019-10-04 13:00:00 Ts debe ser mayor o igual a Td Ts=4.7 - Td=5.3 2023-11-08 09:24:00
1 2019-10-05 11:00:00 Ts debe ser mayor o igual a Td Ts=-0.3 - Td=1.7 2023-11-08 09:24:00
1 2019-10-05 12:00:00 Ts debe ser mayor o igual a Td Ts=4.7 - Td=4.8 2023-11-08 09:24:00
1 2019-10-06 11:00:00 Ts debe ser mayor o igual a Td Ts=3.1 - Td=3.2 2023-11-08 09:24:00
1 2019-10-06 12:00:00 Ts debe ser mayor o igual a Td Ts=6.2 - Td=7.4 2023-11-08 09:24:00
1 2019-10-08 11:00:00 Ts debe ser mayor o igual a Td Ts=3.6 - Td=5.1 2023-11-08 09:24:00
1 2019-10-10 12:00:00 Ts debe ser mayor o igual a Td Ts=11.2 - Td=11.3 2023-11-08 09:24:00
1 2019-10-14 17:00:00 Ts debe ser mayor o igual a Td Ts=13.8 - Td=13.9 2023-11-08 09:24:00
1 2019-10-15 11:00:00 Ts debe ser mayor o igual a Td Ts=8.1 - Td=8.4 2023-11-08 09:24:00
1 2019-10-18 14:00:00 Ts debe ser mayor o igual a Td Ts=9.9 - Td=10.1 2023-11-08 09:24:00
1 2019-10-19 12:00:00 Ts debe ser mayor o igual a Td Ts=8.8 - Td=9.4 2023-11-08 09:24:00
1 2019-10-21 11:00:00 Ts debe ser mayor o igual a Td Ts=5.7 - Td=7.6 2023-11-08 09:24:00
1 2019-10-22 11:00:00 Ts debe ser mayor o igual a Td Ts=4.3 - Td=5.7 2023-11-08 09:24:00
1 2019-10-23 11:00:00 Ts debe ser mayor o igual a Td Ts=5.3 - Td=9.0 2023-11-08 09:24:00
1 2019-10-25 11:00:00 Ts debe ser mayor o igual a Td Ts=6.7 - Td=8.2 2023-11-08 09:24:00
1 2019-10-26 13:00:00 Ts debe ser mayor o igual a Td Ts=12.7 - Td=12.9 2023-11-08 09:24:00
1 2019-10-28 11:00:00 Ts debe ser mayor o igual a Td Ts=8.9 - Td=11.3 2023-11-08 09:24:00
1 2019-10-29 12:00:00 Ts debe ser mayor o igual a Td Ts=9.1 - Td=9.4 2023-11-08 09:24:00
1 2019-10-30 11:00:00 Ts debe ser mayor o igual a Td Ts=4.6 - Td=4.9 2023-11-08 09:24:00
1 2019-10-30 13:00:00 Ts debe ser mayor o igual a Td Ts=10.1 - Td=10.4 2023-11-08 09:24:00
1 2019-10-31 11:00:00 Ts debe ser mayor o igual a Td Ts=7.1 - Td=8.7 2023-11-08 09:24:00
1 2019-11-02 14:00:00 Ts debe ser mayor o igual a Td Ts=10.3 - Td=10.4 2023-11-08 09:24:00
1 2019-11-05 14:00:00 Ts debe ser mayor o igual a Td Ts=10.0 - Td=11.4 2023-11-08 09:24:00
1 2019-11-06 11:00:00 Ts debe ser mayor o igual a Td Ts=8.2 - Td=9.3 2023-11-08 09:24:00
1 2019-11-10 10:00:00 Ts debe ser mayor o igual a Td Ts=9.2 - Td=9.7 2023-11-08 09:24:00
1 2019-11-10 11:00:00 Ts debe ser mayor o igual a Td Ts=12.3 - Td=12.4 2023-11-08 09:24:00
1 2019-11-11 11:00:00 Ts debe ser mayor o igual a Td Ts=11.4 - Td=14.1 2023-11-08 09:24:00
1 2019-11-12 11:00:00 Ts debe ser mayor o igual a Td Ts=10.7 - Td=13.8 2023-11-08 09:24:00
1 2019-11-13 11:00:00 Ts debe ser mayor o igual a Td Ts=12.0 - Td=13.4 2023-11-08 09:24:00
1 2019-11-15 11:00:00 Ts debe ser mayor o igual a Td Ts=12.0 - Td=14.0 2023-11-08 09:24:00
1 2019-11-17 10:00:00 Ts debe ser mayor o igual a Td Ts=8.1 - Td=8.2 2023-11-08 09:24:00
1 2019-11-18 12:00:00 Ts debe ser mayor o igual a Td Ts=11.7 - Td=12.1 2023-11-08 09:24:00
1 2019-11-19 10:00:00 Ts debe ser mayor o igual a Td Ts=7.5 - Td=9.8 2023-11-08 09:24:00
1 2019-11-20 10:00:00 Ts debe ser mayor o igual a Td Ts=8.9 - Td=9.2 2023-11-08 09:24:00
1 2019-11-20 11:00:00 Ts debe ser mayor o igual a Td Ts=12.1 - Td=12.2 2023-11-08 09:24:00
1 2019-11-22 10:00:00 Ts debe ser mayor o igual a Td Ts=7.6 - Td=7.8 2023-11-08 09:24:00
1 2019-11-22 11:00:00 Ts debe ser mayor o igual a Td Ts=10.9 - Td=14.2 2023-11-08 09:24:00
1 2019-11-23 11:00:00 Ts debe ser mayor o igual a Td Ts=11.6 - Td=12.3 2023-11-08 09:24:00
1 2019-11-26 10:00:00 Ts debe ser mayor o igual a Td Ts=4.5 - Td=5.5 2023-11-08 09:24:00
1 2019-11-28 10:00:00 Ts debe ser mayor o igual a Td Ts=6.8 - Td=8.5 2023-11-08 09:24:00
1 2019-11-29 10:00:00 Ts debe ser mayor o igual a Td Ts=6.8 - Td=7.5 2023-11-08 09:25:00
1 2019-11-29 11:00:00 Ts debe ser mayor o igual a Td Ts=9.8 - Td=10.1 2023-11-08 09:25:00
1 2019-11-30 10:00:00 Ts debe ser mayor o igual a Td Ts=6.9 - Td=7.6 2023-11-08 09:25:00
1 2019-12-01 10:00:00 Ts debe ser mayor o igual a Td Ts=8.5 - Td=9.5 2023-11-08 09:25:00
1 2019-12-02 10:00:00 Ts debe ser mayor o igual a Td Ts=9.8 - Td=11.1 2023-11-08 09:25:00
1 2019-12-04 10:00:00 Ts debe ser mayor o igual a Td Ts=7.3 - Td=8.3 2023-11-08 09:25:00
1 2019-12-05 10:00:00 Ts debe ser mayor o igual a Td Ts=9.2 - Td=10.3 2023-11-08 09:25:00
1 2019-12-06 10:00:00 Ts debe ser mayor o igual a Td Ts=10.6 - Td=11.3 2023-11-08 09:25:00
1 2019-12-07 10:00:00 Ts debe ser mayor o igual a Td Ts=9.4 - Td=9.6 2023-11-08 09:25:00
1 2019-12-08 10:00:00 Ts debe ser mayor o igual a Td Ts=9.2 - Td=9.6 2023-11-08 09:25:00
1 2019-12-08 11:00:00 Ts debe ser mayor o igual a Td Ts=12.1 - Td=12.5 2023-11-08 09:25:00
1 2019-12-09 10:00:00 Ts debe ser mayor o igual a Td Ts=9.2 - Td=10.2 2023-11-08 09:25:00
1 2019-12-10 10:00:00 Ts debe ser mayor o igual a Td Ts=9.6 - Td=9.8 2023-11-08 09:25:00
1 2019-12-10 11:00:00 Ts debe ser mayor o igual a Td Ts=12.6 - Td=12.8 2023-11-08 09:25:00
1 2019-12-11 10:00:00 Ts debe ser mayor o igual a Td Ts=8.3 - Td=9.1 2023-11-08 09:25:00
1 2019-12-13 10:00:00 Ts debe ser mayor o igual a Td Ts=7.6 - Td=9.2 2023-11-08 09:25:00
1 2019-12-15 10:00:00 Ts debe ser mayor o igual a Td Ts=7.9 - Td=9.0 2023-11-08 09:25:00
1 2019-12-17 10:00:00 Ts debe ser mayor o igual a Td Ts=8.9 - Td=10.2 2023-11-08 09:25:00
Errores del Nivel 64
Informe generado el 05-03-2024 09:52
Requerimiento: RE6001